Time;durP1;ratioP1;P1;durP2;ratioP2;P2;SDS_P1;SDS_P2;PMS_P1;PMS_P2;Temp;Humidity;BMP_temperature;BMP_pressure;BME280_temperature;BME280_humidity;BME280_pressure;Samples;Min_cycle;Max_cycle;Signal;HPM_P1;HPM_P2
2022/01/09 00:00:49;;;;;;;4.35;4.05;;;6.60;85.70;;;;;;6092496;23;94206;-66
2022/01/09 00:03:16;;;;;;;5.05;4.53;;;6.50;85.30;;;;;;6092434;23;95588;-66
2022/01/09 00:05:43;;;;;;;4.35;3.90;;;6.50;85.10;;;;;;6095123;23;92314;-66
2022/01/09 00:08:10;;;;;;;4.85;4.45;;;6.50;85.70;;;;;;6095047;23;92838;-66
2022/01/09 00:10:37;;;;;;;4.88;4.47;;;6.50;85.90;;;;;;6068715;23;93313;-65
2022/01/09 00:13:04;;;;;;;6.20;5.60;;;6.60;85.60;;;;;;6094527;23;92465;-65
2022/01/09 00:15:31;;;;;;;4.53;4.13;;;6.50;85.50;;;;;;6094977;23;92363;-71
2022/01/09 00:17:58;;;;;;;5.15;4.40;;;6.50;85.70;;;;;;6093268;23;94793;-66
2022/01/09 00:20:25;;;;;;;4.70;4.30;;;6.50;85.90;;;;;;6094756;23;93147;-66
2022/01/09 00:22:52;;;;;;;5.10;4.70;;;6.40;85.70;;;;;;6067919;23;94967;-71
2022/01/09 00:25:22;;;;;;;5.40;4.90;;;6.50;86.30;;;;;;6093147;23;92458;-71
2022/01/09 00:27:49;;;;;;;4.78;4.35;;;6.50;86.10;;;;;;6094595;23;92489;-71
2022/01/09 00:30:19;;;;;;;4.60;4.20;;;6.50;85.90;;;;;;6094603;23;95206;-66
2022/01/09 00:32:46;;;;;;;5.00;4.60;;;6.50;85.70;;;;;;6094702;23;92722;-71
2022/01/09 00:35:16;;;;;;;4.60;4.28;;;6.50;86.00;;;;;;6093022;23;91733;-66
2022/01/09 00:37:43;;;;;;;5.25;4.80;;;6.50;86.30;;;;;;6094735;23;92386;-71
2022/01/09 00:40:12;;;;;;;4.45;4.15;;;6.50;85.90;;;;;;6094387;23;92938;-71
2022/01/09 00:42:39;;;;;;;5.50;5.00;;;6.50;86.10;;;;;;6067145;23;94866;-72
2022/01/09 00:45:07;;;;;;;5.13;4.63;;;6.50;85.70;;;;;;6094364;23;92515;-71
2022/01/09 00:47:34;;;;;;;3.03;2.75;;;6.60;85.70;;;;;;6094782;23;92413;-66
2022/01/09 00:50:02;;;;;;;4.70;4.30;;;6.50;85.70;;;;;;6094428;23;93343;-66
2022/01/09 00:52:29;;;;;;;5.68;5.28;;;6.50;86.20;;;;;;6092859;23;93867;-66
2022/01/09 00:54:56;;;;;;;5.32;4.93;;;6.50;86.00;;;;;;6094326;23;92397;-71
2022/01/09 00:57:23;;;;;;;4.88;4.45;;;6.60;86.20;;;;;;6094529;23;92498;-71
2022/01/09 00:59:50;;;;;;;5.13;4.72;;;6.60;85.50;;;;;;6094774;23;92298;-66
2022/01/09 01:02:17;;;;;;;5.03;4.50;;;6.60;85.70;;;;;;6093715;23;98893;-66
2022/01/09 01:04:45;;;;;;;5.03;4.63;;;6.50;85.50;;;;;;6068360;23;92411;-66
2022/01/09 01:07:12;;;;;;;5.15;4.72;;;6.50;85.50;;;;;;6092750;23;94835;-72
2022/01/09 01:09:39;;;;;;;4.63;4.28;;;6.50;86.00;;;;;;6093470;23;113756;-66
2022/01/09 01:12:06;;;;;;;4.75;4.43;;;6.50;86.00;;;;;;6094016;23;92652;-71
2022/01/09 01:14:33;;;;;;;4.95;4.55;;;6.50;86.00;;;;;;6094429;23;92378;-71
2022/01/09 01:17:00;;;;;;;5.40;4.90;;;6.60;85.80;;;;;;6093964;23;92534;-71
2022/01/09 01:19:27;;;;;;;4.97;4.57;;;6.60;85.90;;;;;;6094286;23;93905;-71
2022/01/09 01:21:55;;;;;;;5.10;4.57;;;6.60;85.40;;;;;;6092898;23;92594;-72
2022/01/09 01:24:22;;;;;;;4.88;4.47;;;6.60;85.70;;;;;;6094976;23;91604;-66
2022/01/09 01:26:50;;;;;;;4.88;4.55;;;6.50;85.60;;;;;;6094290;23;92310;-66
2022/01/09 01:29:18;;;;;;;4.65;4.35;;;6.50;86.30;;;;;;6092165;23;94065;-66
2022/01/09 01:31:44;;;;;;;4.90;4.50;;;6.50;86.20;;;;;;6092685;23;94844;-72
2022/01/09 01:34:12;;;;;;;5.00;4.60;;;6.60;86.10;;;;;;6092339;23;92296;-72
2022/01/09 01:36:40;;;;;;;7.85;4.90;;;6.60;85.70;;;;;;6094337;23;92416;-71
2022/01/09 01:39:07;;;;;;;5.15;4.75;;;6.60;85.30;;;;;;6095176;23;93042;-66
2022/01/09 01:41:34;;;;;;;5.07;4.68;;;6.60;85.10;;;;;;6093936;23;94077;-71
2022/01/09 01:44:02;;;;;;;6.20;5.60;;;6.70;85.00;;;;;;6095710;23;92358;-71
2022/01/09 01:46:29;;;;;;;5.10;4.75;;;6.70;85.10;;;;;;6095713;23;92447;-71
2022/01/09 01:48:56;;;;;;;5.85;5.25;;;6.60;85.10;;;;;;6095534;23;107994;-66
2022/01/09 01:51:23;;;;;;;5.45;5.05;;;6.60;85.10;;;;;;6093912;23;92514;-71
2022/01/09 01:53:54;;;;;;;5.85;5.35;;;6.70;85.10;;;;;;6095753;23;92375;-71
2022/01/09 01:56:23;;;;;;;5.68;5.22;;;6.70;84.90;;;;;;6092446;23;94866;-71
2022/01/09 01:58:51;;;;;;;6.07;5.57;;;6.70;84.80;;;;;;6095676;23;94596;-71
2022/01/09 02:01:18;;;;;;;6.60;6.00;;;6.70;85.10;;;;;;6095322;23;94169;-71
2022/01/09 02:03:48;;;;;;;6.00;5.50;;;6.70;85.20;;;;;;6095828;23;92395;-71
2022/01/09 02:06:17;;;;;;;6.97;6.38;;;6.70;85.00;;;;;;6093588;23;95744;-72
2022/01/09 02:08:44;;;;;;;7.22;6.63;;;6.70;85.10;;;;;;6095671;23;93092;-71
2022/01/09 02:11:11;;;;;;;6.28;5.68;;;6.70;84.90;;;;;;6095183;23;93530;-71
2022/01/09 02:13:45;;;;;;;7.28;6.68;;;6.70;84.70;;;;;;6095338;23;106559;-71
2022/01/09 02:16:17;;;;;;;7.32;6.63;;;6.70;84.80;;;;;;6095361;23;92435;-71
2022/01/09 02:18:46;;;;;;;7.60;6.90;;;6.70;84.90;;;;;;6095615;23;93092;-71
2022/01/09 02:21:14;;;;;;;11.20;6.78;;;6.70;84.90;;;;;;6093833;23;94828;-71
2022/01/09 02:23:45;;;;;;;7.72;7.03;;;6.80;85.00;;;;;;6095678;23;92309;-71
2022/01/09 02:26:17;;;;;;;7.90;7.20;;;6.80;84.80;;;;;;6095549;23;92389;-71
2022/01/09 02:28:45;;;;;;;8.05;7.35;;;6.80;84.90;;;;;;6095722;23;96171;-72
2022/01/09 02:31:13;;;;;;;8.43;7.63;;;6.70;85.10;;;;;;6095190;23;92716;-72
2022/01/09 02:33:41;;;;;;;8.38;7.53;;;6.70;85.10;;;;;;6069370;23;93147;-72
2022/01/09 02:36:08;;;;;;;8.48;7.70;;;6.80;85.30;;;;;;6093903;23;92475;-71
2022/01/09 02:38:36;;;;;;;7.95;7.22;;;6.80;85.20;;;;;;6094404;23;94580;-71
2022/01/09 02:41:03;;;;;;;9.32;8.43;;;6.80;85.00;;;;;;6093838;23;97116;-72
2022/01/09 02:43:30;;;;;;;9.15;8.30;;;6.80;85.20;;;;;;6069706;23;92526;-72
2022/01/09 02:46:03;;;;;;;8.32;7.60;;;6.80;85.30;;;;;;6094072;23;94947;-72
2022/01/09 02:48:34;;;;;;;9.50;8.55;;;6.80;85.10;;;;;;6094713;23;93067;-72
2022/01/09 02:51:10;;;;;;;9.18;8.27;;;6.80;85.00;;;;;;6069269;23;95022;-72
2022/01/09 02:53:39;;;;;;;10.32;9.30;;;6.80;85.00;;;;;;6095745;23;92389;-72
2022/01/09 02:56:07;;;;;;;10.02;8.70;;;6.80;85.00;;;;;;6094840;23;94579;-73
2022/01/09 02:58:35;;;;;;;10.45;9.45;;;6.80;84.90;;;;;;6093966;23;92942;-72
2022/01/09 03:01:03;;;;;;;10.48;9.48;;;6.80;85.10;;;;;;6095372;23;92792;-72
2022/01/09 03:03:30;;;;;;;10.57;9.00;;;6.80;85.00;;;;;;6095519;23;91667;-72
2022/01/09 03:05:57;;;;;;;11.70;10.50;;;6.80;84.90;;;;;;6095658;23;92338;-72
2022/01/09 03:08:24;;;;;;;10.50;9.50;;;6.80;85.10;;;;;;6116876;23;104895;-71
2022/01/09 03:10:51;;;;;;;11.68;10.57;;;6.90;85.10;;;;;;6093653;23;97802;-72
2022/01/09 03:13:18;;;;;;;12.15;10.95;;;6.90;85.00;;;;;;6094786;23;92402;-71
2022/01/09 03:15:45;;;;;;;12.73;11.43;;;6.90;85.10;;;;;;6094790;23;92310;-72
2022/01/09 03:18:12;;;;;;;13.75;12.23;;;6.90;85.30;;;;;;6094306;23;93080;-71
2022/01/09 03:20:40;;;;;;;14.75;12.48;;;6.90;85.50;;;;;;6094757;23;92540;-72
2022/01/09 03:23:08;;;;;;;14.43;12.40;;;6.90;85.60;;;;;;6044904;23;92483;-72
2022/01/09 03:25:35;;;;;;;14.35;12.05;;;6.90;85.40;;;;;;6094530;23;92409;-72
2022/01/09 03:28:03;;;;;;;15.13;13.25;;;6.90;85.30;;;;;;6093732;23;92642;-71
2022/01/09 03:30:30;;;;;;;15.10;13.32;;;6.90;85.40;;;;;;6068215;23;93238;-72
2022/01/09 03:32:57;;;;;;;15.48;12.55;;;6.90;85.60;;;;;;6067869;23;107267;-72
2022/01/09 03:35:26;;;;;;;12.10;10.25;;;6.90;85.70;;;;;;6091915;23;94810;-72
2022/01/09 03:37:53;;;;;;;11.57;9.30;;;6.90;85.80;;;;;;6044078;23;94109;-72
2022/01/09 03:40:22;;;;;;;8.52;7.43;;;6.90;86.00;;;;;;6093255;23;93948;-72
2022/01/09 03:42:52;;;;;;;9.70;7.50;;;7.00;86.30;;;;;;6068879;23;93876;-72
2022/01/09 03:45:20;;;;;;;7.75;6.50;;;7.00;86.40;;;;;;6095290;23;92359;-72
2022/01/09 03:47:47;;;;;;;7.10;5.93;;;7.00;86.40;;;;;;6094912;23;95028;-72
2022/01/09 03:50:16;;;;;;;9.70;5.25;;;7.00;86.50;;;;;;6095556;23;92886;-72
2022/01/09 03:52:43;;;;;;;7.85;5.22;;;7.00;86.60;;;;;;6095987;23;91567;-72
2022/01/09 03:55:12;;;;;;;8.07;5.25;;;7.10;86.40;;;;;;6095328;23;92413;-72
2022/01/09 03:57:40;;;;;;;7.32;4.95;;;7.10;86.60;;;;;;6092941;23;94320;-72
2022/01/09 04:00:10;;;;;;;7.32;5.30;;;7.10;86.50;;;;;;6091066;23;108742;-72
2022/01/09 04:02:38;;;;;;;8.20;5.53;;;7.20;86.60;;;;;;6094807;23;92496;-72
2022/01/09 04:05:06;;;;;;;7.47;4.90;;;7.20;86.60;;;;;;6094947;23;92335;-72
2022/01/09 04:07:34;;;;;;;8.95;5.47;;;7.20;86.40;;;;;;6068546;23;92947;-72
2022/01/09 04:10:01;;;;;;;9.88;5.50;;;7.20;86.40;;;;;;6095092;23;97097;-72
2022/01/09 04:12:46;;;;;;;8.57;4.57;;;7.20;86.50;;;;;;6093308;23;92445;-72
2022/01/09 04:15:15;;;;;;;11.60;4.95;;;7.20;86.20;;;;;;6095253;23;92365;-72
2022/01/09 04:17:51;;;;;;;11.90;5.60;;;7.20;86.90;;;;;;6095115;23;92272;-72
2022/01/09 04:20:24;;;;;;;13.45;6.05;;;7.10;87.80;;;;;;6069159;23;93231;-72
2022/01/09 04:22:52;;;;;;;13.13;7.30;;;7.10;88.30;;;;;;6095411;23;93068;-72
2022/01/09 04:25:19;;;;;;;14.27;5.68;;;7.10;88.50;;;;;;6092314;23;94824;-72
2022/01/09 04:27:48;;;;;;;11.20;4.30;;;7.10;88.40;;;;;;6093152;23;94638;-72
2022/01/09 04:30:16;;;;;;;9.38;4.68;;;7.10;88.10;;;;;;6094814;23;93868;-72
2022/01/09 04:32:44;;;;;;;10.23;4.43;;;7.10;88.50;;;;;;6092317;23;110175;-73
2022/01/09 04:35:12;;;;;;;12.50;3.90;;;7.10;88.10;;;;;;6095294;23;92469;-73
2022/01/09 04:37:39;;;;;;;9.30;3.97;;;7.10;88.20;;;;;;6094594;23;93481;-72
2022/01/09 04:40:09;;;;;;;14.05;3.60;;;7.10;88.00;;;;;;6095005;23;92837;-72
2022/01/09 04:42:49;;;;;;;15.52;3.53;;;7.10;88.00;;;;;;6069007;23;91755;-72
2022/01/09 04:45:17;;;;;;;21.00;4.63;;;7.20;89.10;;;;;;6095081;23;92328;-72
2022/01/09 04:47:47;;;;;;;13.95;4.25;;;7.30;88.80;;;;;;6094656;23;93139;-72
2022/01/09 04:50:20;;;;;;;20.55;4.82;;;7.40;89.20;;;;;;6093443;23;94767;-72
2022/01/09 04:52:51;;;;;;;20.87;4.97;;;7.40;88.80;;;;;;6094839;23;92699;-73
2022/01/09 04:55:18;;;;;;;24.70;4.05;;;7.40;88.90;;;;;;6095036;23;92362;-73
2022/01/09 04:57:45;;;;;;;22.02;4.40;;;7.50;88.60;;;;;;6094450;23;93047;-72
2022/01/09 05:00:12;;;;;;;27.67;5.00;;;7.60;88.50;;;;;;6092949;23;94147;-72
2022/01/09 05:02:39;;;;;;;30.77;4.60;;;7.60;88.50;;;;;;6092750;23;92498;-72
2022/01/09 05:05:09;;;;;;;33.90;5.05;;;7.60;88.30;;;;;;6094786;23;92414;-73
2022/01/09 05:07:36;;;;;;;25.33;4.82;;;7.70;88.40;;;;;;6092958;23;93375;-73
2022/01/09 05:10:05;;;;;;;26.65;4.90;;;7.60;88.30;;;;;;6094714;23;92404;-72
2022/01/09 05:12:32;;;;;;;33.28;4.50;;;7.70;88.30;;;;;;6095051;23;92296;-72
2022/01/09 05:14:59;;;;;;;28.77;5.43;;;7.70;88.30;;;;;;6067794;23;104364;-72
2022/01/09 05:17:26;;;;;;;31.85;4.38;;;7.70;88.30;;;;;;6095792;23;95810;-72
2022/01/09 05:19:57;;;;;;;27.65;5.45;;;7.70;88.80;;;;;;6069349;23;93971;-72
2022/01/09 05:22:25;;;;;;;27.73;4.53;;;7.80;88.20;;;;;;6096266;23;93059;-72
2022/01/09 05:24:54;;;;;;;26.05;3.85;;;7.80;87.70;;;;;;6095894;23;92446;-72
2022/01/09 05:27:23;;;;;;;26.15;4.45;;;7.80;87.50;;;;;;6095897;23;92826;-72
2022/01/09 05:29:50;;;;;;;30.35;4.28;;;7.90;87.40;;;;;;6095641;23;92607;-72
2022/01/09 05:32:17;;;;;;;27.20;3.88;;;7.90;87.30;;;;;;6096589;23;91701;-72
2022/01/09 05:34:44;;;;;;;27.77;4.65;;;7.90;87.10;;;;;;6095710;23;92479;-72
2022/01/09 05:37:11;;;;;;;29.05;4.60;;;7.80;87.00;;;;;;6095922;23;92839;-72
2022/01/09 05:39:38;;;;;;;23.40;4.07;;;7.90;86.90;;;;;;6094257;23;94715;-72
2022/01/09 05:42:07;;;;;;;21.52;3.85;;;7.80;87.00;;;;;;6094625;23;92344;-72
2022/01/09 05:44:34;;;;;;;19.40;4.25;;;7.90;86.90;;;;;;6069843;23;92463;-72
2022/01/09 05:47:02;;;;;;;23.85;4.32;;;7.80;86.70;;;;;;6095993;23;93008;-72
2022/01/09 05:49:29;;;;;;;21.00;4.13;;;7.80;86.90;;;;;;6094042;23;98471;-72
2022/01/09 05:51:56;;;;;;;18.63;4.07;;;7.80;86.80;;;;;;6094172;23;92458;-72
2022/01/09 05:54:23;;;;;;;20.17;3.83;;;7.80;86.40;;;;;;6096088;23;92467;-72
2022/01/09 05:56:53;;;;;;;22.25;4.15;;;7.80;86.50;;;;;;6094310;23;92074;-72
2022/01/09 05:59:20;;;;;;;19.23;3.33;;;7.80;86.30;;;;;;6095907;23;92311;-72
2022/01/09 06:01:48;;;;;;;13.25;2.85;;;7.90;86.30;;;;;;6095253;23;92436;-72
2022/01/09 06:04:16;;;;;;;18.33;3.33;;;7.80;86.00;;;;;;6094638;23;95374;-73
2022/01/09 06:06:43;;;;;;;18.60;3.20;;;7.80;85.90;;;;;;6095278;23;93117;-73
2022/01/09 06:09:10;;;;;;;21.58;3.42;;;7.80;85.80;;;;;;6095674;23;93075;-72
2022/01/09 06:11:37;;;;;;;16.58;3.00;;;7.80;85.60;;;;;;6093910;23;92517;-72
2022/01/09 06:14:04;;;;;;;20.33;3.60;;;7.80;85.70;;;;;;6094275;23;92988;-72
2022/01/09 06:16:31;;;;;;;23.85;3.47;;;7.80;85.50;;;;;;6093897;23;95073;-72
2022/01/09 06:18:58;;;;;;;20.52;2.83;;;7.80;85.50;;;;;;6095239;23;92760;-73
2022/01/09 06:21:26;;;;;;;18.50;3.70;;;7.80;85.40;;;;;;6096425;23;91930;-72
2022/01/09 06:23:54;;;;;;;19.50;3.58;;;7.70;85.10;;;;;;6095559;23;92496;-72
2022/01/09 06:26:21;;;;;;;14.90;2.95;;;7.70;85.30;;;;;;6094700;23;109380;-72
2022/01/09 06:28:48;;;;;;;16.65;3.30;;;7.70;85.20;;;;;;6093803;23;94708;-72
2022/01/09 06:31:15;;;;;;;21.10;3.15;;;7.70;84.90;;;;;;6094015;23;92377;-72
2022/01/09 06:33:42;;;;;;;22.92;2.83;;;7.70;84.90;;;;;;6069177;23;92611;-72
2022/01/09 06:36:08;;;;;;;19.55;3.72;;;7.70;85.30;;;;;;6095551;23;93048;-72
2022/01/09 06:38:37;;;;;;;19.92;3.30;;;7.70;85.20;;;;;;6095399;23;92770;-72
2022/01/09 06:41:04;;;;;;;18.00;2.67;;;7.70;84.80;;;;;;6069126;23;92362;-73
2022/01/09 06:43:31;;;;;;;18.90;3.00;;;7.70;84.60;;;;;;6094025;23;92371;-73
2022/01/09 06:45:58;;;;;;;12.07;2.55;;;7.60;84.40;;;;;;6095448;23;93404;-73
2022/01/09 06:48:25;;;;;;;15.48;2.47;;;7.60;84.00;;;;;;6095643;23;92412;-72
2022/01/09 06:50:52;;;;;;;22.77;3.45;;;7.60;84.10;;;;;;6094082;23;92412;-72
2022/01/09 06:53:19;;;;;;;16.65;4.15;;;7.60;84.30;;;;;;6094116;23;94791;-73
2022/01/09 06:55:46;;;;;;;11.80;2.80;;;7.60;84.40;;;;;;6069209;23;92939;-72
2022/01/09 06:58:14;;;;;;;13.18;2.60;;;7.50;84.40;;;;;;6095161;23;96262;-72
2022/01/09 07:00:41;;;;;;;16.88;2.97;;;7.50;84.40;;;;;;6095738;23;92393;-72
2022/01/09 07:03:08;;;;;;;17.13;2.50;;;7.50;84.50;;;;;;6095100;23;92378;-72
2022/01/09 07:05:35;;;;;;;12.40;2.30;;;7.50;84.20;;;;;;6093753;23;95944;-72
2022/01/09 07:08:02;;;;;;;15.57;3.28;;;7.50;84.10;;;;;;6095243;23;92665;-72
2022/01/09 07:10:31;;;;;;;23.08;3.35;;;7.50;84.60;;;;;;6095384;23;100178;-72
2022/01/09 07:12:58;;;;;;;14.75;3.13;;;7.50;84.60;;;;;;6095369;23;92496;-72
2022/01/09 07:15:25;;;;;;;14.93;2.40;;;7.50;84.30;;;;;;6093710;23;94099;-73
2022/01/09 07:17:52;;;;;;;16.85;2.42;;;7.50;84.40;;;;;;6093710;23;95184;-72
2022/01/09 07:20:19;;;;;;;12.32;2.70;;;7.40;84.30;;;;;;6095548;23;92449;-72
2022/01/09 07:22:47;;;;;;;18.25;3.53;;;7.40;84.20;;;;;;6093915;23;92631;-73
2022/01/09 07:25:14;;;;;;;13.35;3.03;;;7.40;84.30;;;;;;6095000;23;94240;-72
2022/01/09 07:27:41;;;;;;;17.25;3.50;;;7.40;84.40;;;;;;6094829;23;107790;-73
2022/01/09 07:30:08;;;;;;;18.88;3.50;;;7.40;84.50;;;;;;6069211;23;92489;-72
2022/01/09 07:32:36;;;;;;;18.83;3.50;;;7.40;84.80;;;;;;6095534;23;92444;-72
2022/01/09 07:35:04;;;;;;;21.67;2.97;;;7.40;84.60;;;;;;6094970;23;92282;-72
2022/01/09 07:37:31;;;;;;;11.25;2.42;;;7.40;84.30;;;;;;6095261;23;92336;-72
2022/01/09 07:39:59;;;;;;;15.30;3.22;;;7.40;84.10;;;;;;6095446;23;92557;-72
2022/01/09 07:42:26;;;;;;;15.85;2.95;;;7.40;84.30;;;;;;6092408;23;94932;-72
2022/01/09 07:44:53;;;;;;;18.50;2.63;;;7.40;84.10;;;;;;6068621;23;95809;-74
2022/01/09 07:47:20;;;;;;;14.15;2.70;;;7.40;83.90;;;;;;6095192;23;92828;-73
2022/01/09 07:49:47;;;;;;;17.10;2.50;;;7.40;84.00;;;;;;6095305;23;92461;-72
2022/01/09 07:52:14;;;;;;;17.63;2.53;;;7.40;83.80;;;;;;6094310;23;105818;-74
2022/01/09 07:54:41;;;;;;;16.15;2.50;;;7.40;83.80;;;;;;6095229;23;95246;-74
2022/01/09 07:57:08;;;;;;;13.77;3.10;;;7.40;84.10;;;;;;6094892;23;92792;-74
2022/01/09 07:59:35;;;;;;;14.48;2.47;;;7.40;83.60;;;;;;6095927;23;91548;-74
2022/01/09 08:02:02;;;;;;;15.32;2.50;;;7.40;83.40;;;;;;6094918;23;92406;-73
2022/01/09 08:04:29;;;;;;;10.25;2.45;;;7.40;83.40;;;;;;6095217;23;93020;-74
2022/01/09 08:06:56;;;;;;;14.93;2.85;;;7.30;83.50;;;;;;6093505;23;94827;-74
2022/01/09 08:09:23;;;;;;;16.33;2.70;;;7.30;83.70;;;;;;6095205;23;92327;-74
2022/01/09 08:11:50;;;;;;;11.65;2.33;;;7.30;83.60;;;;;;6095261;23;92366;-72
2022/01/09 08:14:17;;;;;;;12.63;2.45;;;7.40;83.40;;;;;;6094124;23;108442;-66
2022/01/09 08:16:44;;;;;;;12.73;2.45;;;7.30;83.50;;;;;;6093582;23;92817;-66
2022/01/09 08:19:11;;;;;;;14.65;2.50;;;7.30;83.10;;;;;;6093246;23;92586;-73
2022/01/09 08:21:37;;;;;;;14.57;2.45;;;7.40;83.30;;;;;;6095242;23;92420;-74
2022/01/09 08:24:05;;;;;;;15.38;2.35;;;7.30;82.70;;;;;;6095594;23;92273;-72
2022/01/09 08:26:32;;;;;;;14.77;3.83;;;7.30;82.80;;;;;;6095224;23;92397;-74
2022/01/09 08:28:59;;;;;;;15.15;2.83;;;7.30;82.50;;;;;;6093514;23;92549;-74
2022/01/09 08:31:26;;;;;;;13.77;3.03;;;7.30;82.50;;;;;;6093722;23;94885;-74
2022/01/09 08:33:53;;;;;;;12.65;2.78;;;7.30;82.50;;;;;;6094992;23;93149;-74
2022/01/09 08:36:20;;;;;;;10.77;2.42;;;7.20;82.80;;;;;;6094644;23;92854;-74
2022/01/09 08:38:48;;;;;;;13.68;2.40;;;7.30;82.60;;;;;;6094685;23;93753;-74
2022/01/09 08:41:15;;;;;;;15.52;3.05;;;7.30;82.40;;;;;;6068527;23;92460;-74
2022/01/09 08:43:42;;;;;;;10.52;2.33;;;7.40;82.50;;;;;;6094814;23;93085;-72
2022/01/09 08:46:09;;;;;;;11.20;1.80;;;7.40;81.90;;;;;;6094719;23;92759;-71
2022/01/09 08:48:36;;;;;;;11.05;2.40;;;7.40;81.80;;;;;;6095326;23;91706;-71
2022/01/09 08:51:04;;;;;;;10.32;2.38;;;7.50;82.20;;;;;;6096005;23;92405;-71
2022/01/09 08:53:32;;;;;;;12.50;2.08;;;7.50;81.50;;;;;;6069648;23;94113;-71
2022/01/09 08:55:59;;;;;;;6.68;1.90;;;7.50;81.40;;;;;;6094393;23;94799;-71
2022/01/09 08:58:26;;;;;;;7.95;2.75;;;7.50;81.60;;;;;;6094461;23;92473;-71
2022/01/09 09:00:54;;;;;;;11.43;2.33;;;7.50;81.30;;;;;;6095829;23;96242;-71
2022/01/09 09:03:23;;;;;;;10.20;2.20;;;7.50;81.00;;;;;;6095492;23;92979;-71
2022/01/09 09:05:50;;;;;;;11.90;2.20;;;7.60;80.90;;;;;;6094204;23;94166;-71
2022/01/09 09:08:18;;;;;;;9.25;2.20;;;7.50;80.70;;;;;;6094424;23;92731;-71
2022/01/09 09:10:46;;;;;;;9.32;2.47;;;7.60;80.80;;;;;;6095908;23;92414;-71
2022/01/09 09:13:13;;;;;;;10.80;2.40;;;7.60;81.00;;;;;;6095730;23;92355;-71
2022/01/09 09:15:40;;;;;;;5.38;2.60;;;7.60;80.90;;;;;;6096110;23;92817;-72
2022/01/09 09:18:07;;;;;;;10.27;2.00;;;7.70;80.50;;;;;;6094168;23;92416;-71
2022/01/09 09:20:34;;;;;;;7.15;2.28;;;7.70;80.60;;;;;;6094596;23;94823;-71
2022/01/09 09:23:02;;;;;;;11.02;1.95;;;7.80;80.70;;;;;;6094107;23;93936;-72
2022/01/09 09:25:29;;;;;;;6.93;1.77;;;7.80;80.30;;;;;;6095126;23;109182;-72
2022/01/09 09:27:56;;;;;;;6.93;1.95;;;7.90;80.40;;;;;;6096088;23;92366;-71
2022/01/09 09:30:22;;;;;;;10.48;2.47;;;7.90;80.10;;;;;;6069871;23;92436;-72
2022/01/09 09:32:50;;;;;;;7.72;1.85;;;7.90;80.10;;;;;;6095820;23;92450;-72
2022/01/09 09:35:17;;;;;;;13.85;2.33;;;8.00;80.00;;;;;;6094315;23;92820;-72
2022/01/09 09:37:43;;;;;;;7.65;1.95;;;8.00;80.00;;;;;;6096381;23;91587;-72
2022/01/09 09:40:11;;;;;;;9.45;2.28;;;8.10;79.90;;;;;;6045534;23;92440;-72
2022/01/09 09:42:39;;;;;;;10.43;2.45;;;8.10;79.70;;;;;;6095857;23;92935;-75
2022/01/09 09:45:08;;;;;;;13.05;2.70;;;8.20;79.60;;;;;;6093043;23;94860;-72
2022/01/09 09:47:37;;;;;;;11.48;2.58;;;8.20;79.50;;;;;;6094182;23;92451;-72
2022/01/09 09:50:07;;;;;;;11.35;3.17;;;8.20;79.80;;;;;;6095894;23;92442;-72
2022/01/09 09:52:34;;;;;;;17.52;4.70;;;8.20;79.60;;;;;;6095646;23;95435;-73
2022/01/09 09:55:04;;;;;;;13.20;2.83;;;8.20;79.50;;;;;;6095920;23;93019;-68
2022/01/09 09:57:31;;;;;;;9.85;1.95;;;8.30;79.50;;;;;;6069554;23;92459;-68
2022/01/09 10:00:19;;;;;;;6.68;1.90;;;8.30;79.40;;;;;;6094143;23;92441;-69
2022/01/09 10:02:48;;;;;;;6.43;2.15;;;8.30;79.00;;;;;;6095498;23;94044;-68
2022/01/09 10:05:21;;;;;;;8.80;2.42;;;8.30;79.20;;;;;;6095514;23;92905;-68
2022/01/09 10:07:52;;;;;;;9.65;2.65;;;8.30;79.20;;;;;;6095903;23;92510;-68
2022/01/09 10:10:28;;;;;;;14.23;2.85;;;8.30;79.00;;;;;;6094411;23;94692;-74
2022/01/09 10:13:14;;;;;;;14.60;2.60;;;8.30;79.30;;;;;;6094141;23;92974;-72
2022/01/09 10:15:46;;;;;;;13.93;2.78;;;8.30;78.60;;;;;;6069423;23;93931;-71
2022/01/09 10:18:14;;;;;;;9.82;1.83;;;8.30;78.30;;;;;;6095416;23;92320;-72
2022/01/09 10:20:42;;;;;;;9.93;1.95;;;8.30;78.10;;;;;;6093567;23;101692;-71
2022/01/09 10:23:09;;;;;;;9.63;1.98;;;8.30;78.10;;;;;;6095482;23;92988;-71
2022/01/09 10:25:38;;;;;;;7.85;2.55;;;8.30;78.20;;;;;;6093575;23;94053;-74
2022/01/09 10:28:06;;;;;;;12.38;2.17;;;8.30;77.70;;;;;;6095738;23;91566;-72
2022/01/09 10:30:40;;;;;;;5.50;1.48;;;8.30;77.40;;;;;;6093911;23;92972;-71
2022/01/09 10:33:10;;;;;;;9.82;2.33;;;8.40;77.30;;;;;;6095454;23;93131;-71
2022/01/09 10:35:39;;;;;;;5.50;1.52;;;8.40;77.30;;;;;;6093664;23;94872;-71
2022/01/09 10:38:11;;;;;;;10.85;2.78;;;8.30;77.40;;;;;;6095712;23;92409;-74
2022/01/09 10:40:41;;;;;;;6.75;1.83;;;8.40;77.30;;;;;;6094051;23;92427;-74
2022/01/09 10:43:16;;;;;;;6.22;1.83;;;8.30;77.20;;;;;;6095584;23;93260;-74
2022/01/09 10:45:50;;;;;;;6.82;1.83;;;8.30;77.20;;;;;;6095625;23;92744;-74
2022/01/09 10:48:22;;;;;;;8.02;1.95;;;8.30;77.30;;;;;;6095691;23;92313;-72
2022/01/09 10:50:51;;;;;;;8.02;1.85;;;8.30;77.10;;;;;;6095697;23;92387;-71
2022/01/09 10:53:27;;;;;;;7.88;2.05;;;8.30;77.20;;;;;;6094025;23;92302;-71
2022/01/09 10:56:10;;;;;;;8.48;1.83;;;8.30;76.70;;;;;;6095333;23;92387;-71
2022/01/09 10:58:44;;;;;;;6.60;1.60;;;8.30;76.80;;;;;;6095762;23;92670;-71
2022/01/09 11:01:23;;;;;;;;;;;8.30;77.30;;;;;;6094680;23;94680;-71
2022/01/09 11:03:52;;;;;;;10.13;2.45;;;8.30;76.70;;;;;;6096439;23;92915;-72
2022/01/09 11:06:20;;;;;;;9.88;2.35;;;8.30;76.70;;;;;;6095089;23;93504;-72
2022/01/09 11:08:48;;;;;;;11.18;1.75;;;8.40;76.90;;;;;;6095590;23;92300;-73
2022/01/09 11:13:53;;;;;;;6.43;1.67;;;8.30;76.70;;;;;;6095209;23;92867;-72
2022/01/09 11:16:42;;;;;;;11.02;2.42;;;8.30;76.40;;;;;;6094773;23;95012;-72
2022/01/09 11:19:12;;;;;;;5.00;1.45;;;8.40;77.10;;;;;;6095920;23;91768;-73
2022/01/09 11:21:44;;;;;;;5.53;1.80;;;8.30;76.70;;;;;;6095052;23;92454;-72
2022/01/09 11:24:24;;;;;;;7.68;1.80;;;8.40;77.00;;;;;;6095375;23;92468;-73
2022/01/09 11:26:58;;;;;;;5.88;1.50;;;8.40;76.90;;;;;;6092545;23;95693;-72
2022/01/09 11:29:37;;;;;;;7.82;1.80;;;8.40;76.70;;;;;;6095162;23;92309;-72
2022/01/09 11:32:41;;;;;;;6.53;1.92;;;8.50;76.80;;;;;;6095511;23;92403;-73
2022/01/09 11:35:38;;;;;;;5.60;1.25;;;8.50;76.20;;;;;;6095376;23;92935;-72
2022/01/09 11:38:10;;;;;;;6.97;1.70;;;8.60;75.70;;;;;;6067121;23;95976;-72
2022/01/09 11:40:38;;;;;;;11.13;2.28;;;8.60;76.10;;;;;;6069197;23;93060;-72
2022/01/09 11:43:13;;;;;;;6.07;1.90;;;8.60;75.60;;;;;;6069630;23;92460;-72
2022/01/09 11:45:43;;;;;;;6.57;2.30;;;8.70;75.90;;;;;;6095243;23;96000;-72
2022/01/09 11:48:11;;;;;;;10.65;2.67;;;8.80;75.90;;;;;;6095256;23;92357;-72
2022/01/09 11:51:06;;;;;;;7.40;2.33;;;8.80;76.00;;;;;;6069423;23;92944;-72
2022/01/09 11:54:12;;;;;;;8.25;2.00;;;8.90;75.90;;;;;;6093672;23;94837;-74
2022/01/09 11:56:46;;;;;;;10.85;2.17;;;9.00;75.60;;;;;;6068457;23;94197;-72
2022/01/09 11:59:17;;;;;;;;;;;9.00;75.50;;;;;;6095681;23;92387;-72
2022/01/09 12:01:46;;;;;;;9.18;2.20;;;8.90;75.50;;;;;;6096214;23;92336;-71
2022/01/09 12:04:31;;;;;;;8.77;1.98;;;9.00;75.50;;;;;;6095479;23;92396;-73
2022/01/09 12:06:59;;;;;;;12.15;2.47;;;9.10;75.40;;;;;;6095319;23;93112;-72
2022/01/09 12:09:42;;;;;;;7.53;2.00;;;9.10;75.40;;;;;;6095087;23;92921;-72
2022/01/09 12:12:16;;;;;;;8.00;1.83;;;9.20;75.60;;;;;;6069450;23;91791;-72
2022/01/09 12:14:55;;;;;;;5.70;1.92;;;9.20;75.10;;;;;;6095102;23;92270;-72
2022/01/09 12:17:26;;;;;;;7.93;1.90;;;9.30;74.90;;;;;;6095127;23;93072;-72
2022/01/09 12:20:12;;;;;;;9.85;2.53;;;9.40;74.70;;;;;;6091649;23;94781;-72
2022/01/09 12:25:24;;;;;;;9.77;2.53;;;9.40;74.70;;;;;;6095286;23;92326;-72
2022/01/09 12:28:03;;;;;;;7.57;2.25;;;9.60;74.10;;;;;;6094667;23;92402;-73
2022/01/09 12:30:33;;;;;;;7.85;2.15;;;9.60;74.00;;;;;;6094903;23;92742;-72
2022/01/09 12:33:05;;;;;;;8.23;2.42;;;9.70;73.80;;;;;;6095264;23;92407;-72
2022/01/09 12:35:33;;;;;;;11.85;2.53;;;9.80;73.70;;;;;;6094923;23;92915;-72
2022/01/09 12:38:01;;;;;;;10.05;2.47;;;9.80;73.30;;;;;;6093464;23;93246;-73
2022/01/09 12:40:29;;;;;;;10.48;1.95;;;9.90;73.20;;;;;;6044151;23;93264;-73
2022/01/09 12:42:58;;;;;;;8.57;2.10;;;10.00;73.20;;;;;;6092891;23;92401;-73
2022/01/09 12:45:31;;;;;;;10.50;2.05;;;10.10;72.50;;;;;;6093587;23;94887;-73
2022/01/09 12:48:00;;;;;;;8.05;2.00;;;10.20;72.30;;;;;;6093204;23;93998;-73
2022/01/09 12:50:32;;;;;;;7.35;1.77;;;10.20;72.00;;;;;;6094726;23;92873;-73
2022/01/09 12:53:11;;;;;;;6.78;1.63;;;10.30;71.50;;;;;;6093530;23;92428;-73
2022/01/09 12:55:57;;;;;;;5.43;1.42;;;10.30;70.90;;;;;;6094733;23;92743;-73
2022/01/09 12:58:30;;;;;;;9.05;2.15;;;10.30;70.80;;;;;;6094768;23;93582;-73
2022/01/09 13:00:59;;;;;;;9.50;2.75;;;10.20;71.30;;;;;;6094107;23;93404;-73
2022/01/09 13:03:31;;;;;;;7.43;2.00;;;10.20;71.20;;;;;;6093371;23;91627;-67
2022/01/09 13:06:07;;;;;;;4.72;1.73;;;10.20;71.20;;;;;;6094835;23;92412;-67